Time;durP1;ratioP1;P1;durP2;ratioP2;P2;SDS_P1;SDS_P2;PMS_P1;PMS_P2;Temp;Humidity;BMP_temperature;BMP_pressure;BME280_temperature;BME280_humidity;BME280_pressure;Samples;Min_cycle;Max_cycle;Signal;HPM_P1;HPM_P2
2023/05/11 00:00:11;;;;;;;1.95;1.85;;;10.00;99.90;;;;;;5073736;28;20036;-57
2023/05/11 00:02:37;;;;;;;2.67;1.98;;;10.00;99.90;;;;;;5073462;28;20671;-57
2023/05/11 00:05:03;;;;;;;2.33;1.70;;;10.00;99.90;;;;;;5073690;28;20029;-57
2023/05/11 00:07:28;;;;;;;2.05;1.67;;;10.00;99.90;;;;;;5055425;28;20025;-56
2023/05/11 00:09:54;;;;;;;2.17;1.85;;;10.00;99.90;;;;;;5073655;28;20020;-57
2023/05/11 00:12:20;;;;;;;2.25;1.80;;;9.90;99.50;;;;;;5055339;28;20119;-57
2023/05/11 00:14:45;;;;;;;2.30;2.10;;;9.80;99.90;;;;;;5072847;28;20036;-57
2023/05/11 00:17:11;;;;;;;3.28;2.03;;;9.80;99.90;;;;;;5072058;28;20108;-57
2023/05/11 00:19:37;;;;;;;3.85;3.25;;;9.80;99.90;;;;;;5073466;28;20116;-57
2023/05/11 00:22:03;;;;;;;4.40;2.15;;;9.80;99.90;;;;;;5073301;28;20522;-57
2023/05/11 00:24:29;;;;;;;2.47;1.80;;;9.70;99.90;;;;;;5073091;28;20386;-55
2023/05/11 00:26:54;;;;;;;1.95;1.80;;;9.80;99.90;;;;;;5073151;28;20078;-57
2023/05/11 00:29:20;;;;;;;11.32;2.33;;;9.70;99.90;;;;;;5055210;28;20402;-56
2023/05/11 00:31:46;;;;;;;8.77;2.72;;;9.70;99.90;;;;;;5073116;28;20124;-58
2023/05/11 00:34:14;;;;;;;3.13;2.05;;;9.60;99.90;;;;;;5073193;28;20485;-56
2023/05/11 00:36:41;;;;;;;2.83;1.73;;;9.70;99.90;;;;;;5072878;28;20036;-57
2023/05/11 00:39:07;;;;;;;2.63;1.80;;;9.80;99.90;;;;;;5072655;28;20131;-55
2023/05/11 00:41:33;;;;;;;3.92;2.15;;;9.80;99.90;;;;;;5072761;28;20119;-58
2023/05/11 00:43:59;;;;;;;2.15;1.98;;;9.80;99.90;;;;;;5072715;28;20095;-57
2023/05/11 00:46:27;;;;;;;3.13;1.90;;;9.80;99.90;;;;;;5073022;28;20079;-57
2023/05/11 00:48:52;;;;;;;2.95;1.92;;;9.80;99.90;;;;;;5072795;28;20570;-57
2023/05/11 00:51:19;;;;;;;3.22;1.83;;;9.80;99.90;;;;;;5072784;28;20039;-58
2023/05/11 00:53:45;;;;;;;2.28;1.88;;;9.80;99.80;;;;;;5072641;28;20414;-56
2023/05/11 00:56:11;;;;;;;2.42;1.85;;;9.80;99.90;;;;;;5072707;28;20025;-56
2023/05/11 00:58:37;;;;;;;2.15;1.55;;;9.70;99.90;;;;;;5072393;28;20046;-55
2023/05/11 01:01:03;;;;;;;4.07;1.58;;;9.70;99.90;;;;;;5054577;28;20028;-58
2023/05/11 01:03:30;;;;;;;6.20;2.00;;;9.80;99.90;;;;;;5072301;28;20071;-57
2023/05/11 01:06:09;;;;;;;1.40;1.40;;;9.70;99.40;;;;;;5054492;28;20024;-57
2023/05/11 01:08:54;;;;;;;3.40;1.50;;;9.80;99.80;;;;;;5054579;28;20103;-56
2023/05/11 01:11:30;;;;;;;2.95;1.60;;;9.70;99.00;;;;;;5072431;28;20504;-56
2023/05/11 01:14:02;;;;;;;4.15;1.60;;;9.70;99.60;;;;;;5086544;28;20028;-56
2023/05/11 01:16:33;;;;;;;2.40;1.50;;;9.80;99.90;;;;;;5092436;28;20032;-58
2023/05/11 01:22:34;;;;;;;3.38;1.60;;;9.80;98.90;;;;;;5092270;28;20043;-56
2023/05/11 01:25:11;;;;;;;1.63;1.52;;;9.80;99.40;;;;;;5092312;28;20024;-57
2023/05/11 01:27:40;;;;;;;1.60;1.50;;;9.80;98.50;;;;;;5073332;28;20024;-57
2023/05/11 01:30:28;;;;;;;2.60;1.55;;;9.90;98.90;;;;;;5092618;28;20515;-54
2023/05/11 01:32:58;;;;;;;1.33;1.20;;;9.90;97.60;;;;;;5074102;28;20020;-57
2023/05/11 01:35:25;;;;;;;2.42;1.50;;;9.90;97.70;;;;;;5092192;28;20456;-57
2023/05/11 01:37:56;;;;;;;2.42;1.50;;;9.80;97.10;;;;;;5092008;28;20035;-57
2023/05/11 01:40:25;;;;;;;3.05;1.70;;;9.80;97.60;;;;;;5091949;28;20059;-55
2023/05/11 01:42:57;;;;;;;1.58;1.42;;;9.80;97.20;;;;;;5091952;28;20020;-58
2023/05/11 01:45:25;;;;;;;3.60;1.60;;;9.80;98.50;;;;;;5092170;28;20016;-57
2023/05/11 01:47:54;;;;;;;2.25;1.33;;;9.90;98.80;;;;;;5073683;28;20028;-57
2023/05/11 01:50:23;;;;;;;3.22;1.60;;;9.80;98.00;;;;;;5091822;28;20024;-56
2023/05/11 01:52:50;;;;;;;1.67;1.58;;;9.90;98.60;;;;;;5091694;28;20016;-58
2023/05/11 01:55:20;;;;;;;2.53;1.48;;;9.90;97.90;;;;;;5091852;28;20063;-58
2023/05/11 01:57:48;;;;;;;1.67;1.30;;;10.00;97.70;;;;;;5091638;28;20736;-57
2023/05/11 02:00:16;;;;;;;4.85;2.20;;;10.00;97.10;;;;;;5092007;28;20028;-57
2023/05/11 02:02:44;;;;;;;1.60;1.50;;;10.00;97.40;;;;;;5091450;28;20019;-56
2023/05/11 02:05:10;;;;;;;1.38;1.38;;;9.90;96.30;;;;;;5073567;28;20016;-58
2023/05/11 02:07:45;;;;;;;3.05;1.90;;;9.90;97.20;;;;;;5073427;28;20013;-57
2023/05/11 02:10:13;;;;;;;1.90;1.40;;;10.00;97.30;;;;;;5091696;28;20054;-57
2023/05/11 02:12:41;;;;;;;1.70;1.60;;;10.00;97.80;;;;;;5091400;28;20341;-57
2023/05/11 02:15:09;;;;;;;3.33;1.90;;;9.90;97.30;;;;;;5091670;28;20094;-57
2023/05/11 02:17:35;;;;;;;2.35;1.48;;;10.00;98.00;;;;;;5091336;28;20028;-56
2023/05/11 02:20:03;;;;;;;1.95;1.73;;;9.90;97.60;;;;;;5091517;28;20012;-57
2023/05/11 02:22:31;;;;;;;5.15;2.00;;;9.90;98.50;;;;;;5091358;28;20368;-57
2023/05/11 02:24:56;;;;;;;1.80;1.70;;;9.90;99.40;;;;;;5091607;28;20624;-56
2023/05/11 02:27:22;;;;;;;1.92;1.83;;;9.90;99.00;;;;;;5073470;28;20111;-57
2023/05/11 02:29:47;;;;;;;5.18;1.90;;;9.80;98.80;;;;;;5091370;28;20547;-58
2023/05/11 02:32:18;;;;;;;2.45;1.83;;;9.80;99.70;;;;;;5091465;28;20464;-55
2023/05/11 02:35:00;;;;;;;1.77;1.67;;;9.80;99.90;;;;;;5091373;28;20055;-57
2023/05/11 02:37:28;;;;;;;4.50;3.30;;;9.90;99.50;;;;;;5092425;28;20581;-56
2023/05/11 02:40:02;;;;;;;2.78;1.50;;;10.00;98.40;;;;;;5077309;28;20051;-55
2023/05/11 02:42:31;;;;;;;1.63;1.52;;;9.90;97.70;;;;;;5095089;28;20031;-57
2023/05/11 02:45:01;;;;;;;1.65;1.55;;;9.90;98.40;;;;;;5095829;28;20035;-56
2023/05/11 02:47:31;;;;;;;2.80;1.98;;;9.90;98.90;;;;;;5095341;28;20013;-57
2023/05/11 02:50:00;;;;;;;4.90;2.05;;;9.80;99.10;;;;;;5095307;28;20016;-56
2023/05/11 02:52:27;;;;;;;1.98;1.65;;;9.90;99.80;;;;;;5095307;28;20398;-58
2023/05/11 02:54:53;;;;;;;2.65;2.00;;;9.90;99.90;;;;;;5095094;28;20354;-56
2023/05/11 02:57:21;;;;;;;2.75;1.60;;;9.90;99.80;;;;;;5095167;28;20024;-54
2023/05/11 02:59:48;;;;;;;4.50;2.00;;;9.80;99.90;;;;;;5095162;28;20602;-56
2023/05/11 03:02:14;;;;;;;2.10;1.90;;;9.90;99.90;;;;;;5095261;28;20071;-58
2023/05/11 03:04:39;;;;;;;2.83;2.35;;;9.90;99.80;;;;;;5095006;28;20048;-55
2023/05/11 03:07:06;;;;;;;1.98;1.88;;;9.80;99.90;;;;;;5095149;28;20020;-57
2023/05/11 03:09:41;;;;;;;2.85;1.95;;;9.80;99.70;;;;;;5095035;28;20386;-56
2023/05/11 03:12:08;;;;;;;1.88;1.75;;;9.70;99.50;;;;;;5095016;28;20065;-56
2023/05/11 03:14:35;;;;;;;3.47;1.40;;;9.70;99.90;;;;;;5095095;28;20059;-57
2023/05/11 03:17:02;;;;;;;1.92;1.77;;;9.80;99.90;;;;;;5076588;28;20127;-55
2023/05/11 03:19:29;;;;;;;2.28;1.48;;;9.80;99.90;;;;;;5094642;28;20492;-57
2023/05/11 03:21:58;;;;;;;3.13;1.90;;;9.90;99.80;;;;;;5076467;28;20024;-57
2023/05/11 03:24:24;;;;;;;2.28;1.70;;;9.80;98.70;;;;;;5094552;28;20028;-57
2023/05/11 03:26:55;;;;;;;3.53;2.08;;;9.80;99.30;;;;;;5076205;28;20012;-54
2023/05/11 03:29:23;;;;;;;2.78;1.48;;;9.80;99.80;;;;;;5094529;28;20032;-57
2023/05/11 03:31:49;;;;;;;3.75;1.70;;;9.80;99.90;;;;;;5094379;28;20107;-57
2023/05/11 03:34:15;;;;;;;7.00;2.00;;;9.80;98.60;;;;;;5094485;28;20440;-56
2023/05/11 03:36:43;;;;;;;6.25;1.70;;;9.80;98.90;;;;;;5094244;28;20031;-55
2023/05/11 03:39:11;;;;;;;1.98;1.60;;;9.80;99.90;;;;;;5094227;28;20051;-56
2023/05/11 03:41:39;;;;;;;3.20;1.75;;;9.70;99.90;;;;;;5094162;28;20030;-57
2023/05/11 03:44:09;;;;;;;2.03;1.50;;;9.80;99.90;;;;;;5094290;28;20019;-56
2023/05/11 03:46:38;;;;;;;1.85;1.75;;;9.80;99.00;;;;;;5093978;28;20383;-55
2023/05/11 03:49:05;;;;;;;1.92;1.58;;;9.80;99.40;;;;;;5092962;28;20081;-57
2023/05/11 03:51:31;;;;;;;5.03;1.75;;;9.80;98.90;;;;;;5094006;28;20028;-57
2023/05/11 03:53:57;;;;;;;2.67;1.88;;;9.70;98.80;;;;;;5094020;28;20032;-54
2023/05/11 03:56:23;;;;;;;2.75;2.20;;;9.70;99.90;;;;;;5094152;28;20032;-55
2023/05/11 03:58:49;;;;;;;2.20;2.00;;;9.70;99.90;;;;;;5093839;28;20020;-57
2023/05/11 04:01:15;;;;;;;2.90;2.08;;;9.70;99.90;;;;;;5093782;28;20036;-55
2023/05/11 04:03:51;;;;;;;3.33;2.45;;;9.80;99.90;;;;;;5093577;28;20026;-57
2023/05/11 04:06:18;;;;;;;2.63;2.03;;;9.70;99.90;;;;;;5093958;28;20020;-56
2023/05/11 04:08:43;;;;;;;4.32;1.70;;;9.70;99.90;;;;;;5093749;28;20016;-56
2023/05/11 04:11:09;;;;;;;1.85;1.48;;;9.80;99.90;;;;;;5075695;28;20398;-58
2023/05/11 04:13:35;;;;;;;1.92;1.83;;;9.80;99.20;;;;;;5093529;28;20046;-56
2023/05/11 04:16:01;;;;;;;1.67;1.52;;;9.80;99.90;;;;;;5093691;28;20016;-58
2023/05/11 04:18:28;;;;;;;2.35;1.50;;;9.80;99.90;;;;;;5093655;28;20039;-57
2023/05/11 04:20:53;;;;;;;2.03;1.70;;;9.90;99.90;;;;;;5093536;28;20020;-55
2023/05/11 04:23:19;;;;;;;2.42;1.67;;;9.90;99.30;;;;;;5093534;28;20032;-58
2023/05/11 04:25:45;;;;;;;2.17;1.70;;;9.90;98.40;;;;;;5093328;28;20024;-53
2023/05/11 04:28:10;;;;;;;2.00;1.80;;;9.90;99.00;;;;;;5093217;28;20103;-56
2023/05/11 04:30:36;;;;;;;1.67;1.58;;;9.90;98.80;;;;;;5093207;28;20059;-52
2023/05/11 04:33:02;;;;;;;4.68;1.90;;;9.90;98.70;;;;;;5093334;28;20099;-57
2023/05/11 04:35:27;;;;;;;1.45;1.35;;;9.90;98.90;;;;;;5093274;28;20059;-56
2023/05/11 04:37:53;;;;;;;2.00;1.70;;;10.00;97.20;;;;;;5093210;28;20030;-55
2023/05/11 04:40:19;;;;;;;5.10;3.53;;;10.00;96.70;;;;;;5093100;28;20082;-56
2023/05/11 04:42:45;;;;;;;1.90;1.50;;;10.00;96.90;;;;;;5093288;28;20016;-57
2023/05/11 04:45:10;;;;;;;1.80;1.70;;;10.00;96.90;;;;;;5093142;28;20021;-54
2023/05/11 04:47:36;;;;;;;3.47;1.77;;;10.00;95.30;;;;;;5092959;28;20024;-55
2023/05/11 04:50:02;;;;;;;5.05;2.10;;;9.90;96.10;;;;;;5092769;28;20024;-57
2023/05/11 04:52:28;;;;;;;2.22;1.83;;;9.80;97.20;;;;;;5092836;28;20666;-57
2023/05/11 04:54:53;;;;;;;2.92;2.10;;;9.90;98.10;;;;;;5092891;28;20070;-57
2023/05/11 04:57:19;;;;;;;5.18;2.17;;;9.90;98.30;;;;;;5093161;28;20051;-56
2023/05/11 04:59:45;;;;;;;5.68;2.38;;;9.90;96.90;;;;;;5092546;28;20028;-57
2023/05/11 05:02:10;;;;;;;5.82;2.17;;;10.00;97.20;;;;;;5092845;28;20020;-57
2023/05/11 05:04:36;;;;;;;5.45;2.40;;;10.00;96.70;;;;;;5074126;28;20144;-58
2023/05/11 05:07:03;;;;;;;7.15;2.35;;;10.00;97.90;;;;;;5091721;28;20020;-56
2023/05/11 05:09:31;;;;;;;3.05;2.33;;;10.00;97.30;;;;;;5092510;28;20091;-57
2023/05/11 05:11:57;;;;;;;3.05;2.72;;;10.00;98.00;;;;;;5092513;28;20399;-57
2023/05/11 05:14:22;;;;;;;2.85;2.20;;;10.00;98.50;;;;;;5090150;28;20062;-54
2023/05/11 05:16:48;;;;;;;15.38;2.92;;;10.10;98.50;;;;;;5088586;28;20066;-57
2023/05/11 05:19:14;;;;;;;2.13;2.00;;;10.00;98.20;;;;;;5089226;28;20055;-56
2023/05/11 05:21:40;;;;;;;3.00;2.28;;;10.00;99.50;;;;;;5090788;28;20036;-56
2023/05/11 05:24:05;;;;;;;1.80;1.70;;;10.00;99.10;;;;;;5090892;28;20142;-51
2023/05/11 05:26:32;;;;;;;1.90;1.70;;;10.10;97.80;;;;;;5091022;28;20385;-57
2023/05/11 05:28:58;;;;;;;2.40;2.28;;;10.10;97.20;;;;;;5090726;28;20028;-53
2023/05/11 05:31:24;;;;;;;3.17;1.85;;;10.00;97.20;;;;;;5090762;28;20039;-52
2023/05/11 05:33:49;;;;;;;1.98;1.70;;;10.10;98.30;;;;;;5072697;28;20415;-56
2023/05/11 05:36:15;;;;;;;3.40;1.80;;;10.10;97.70;;;;;;5091886;28;20043;-55
2023/05/11 05:38:40;;;;;;;3.30;2.40;;;10.00;97.00;;;;;;5090318;28;20144;-56
2023/05/11 05:41:06;;;;;;;2.30;1.83;;;10.00;97.60;;;;;;5091473;28;20404;-56
2023/05/11 05:43:32;;;;;;;1.75;1.65;;;10.00;97.10;;;;;;5091478;28;20443;-57
2023/05/11 05:45:57;;;;;;;2.03;1.80;;;10.00;97.00;;;;;;5091455;28;20023;-58
2023/05/11 05:48:23;;;;;;;2.33;2.13;;;10.10;96.80;;;;;;5072452;28;20378;-56
2023/05/11 05:50:49;;;;;;;4.15;2.78;;;10.00;97.70;;;;;;5090452;28;20115;-57
2023/05/11 05:53:15;;;;;;;2.10;2.00;;;10.00;97.80;;;;;;5089368;28;20602;-56
2023/05/11 05:55:40;;;;;;;2.13;2.03;;;9.90;97.90;;;;;;5090356;28;20077;-57
2023/05/11 05:58:07;;;;;;;2.50;2.22;;;9.90;99.00;;;;;;5090683;28;20028;-58
2023/05/11 06:00:36;;;;;;;2.47;2.28;;;10.00;98.30;;;;;;5090283;28;20081;-56
2023/05/11 06:03:01;;;;;;;2.22;2.10;;;10.10;97.60;;;;;;5091696;28;20145;-57
2023/05/11 06:05:48;;;;;;;2.92;2.05;;;10.10;96.60;;;;;;5091560;28;20469;-55
2023/05/11 06:08:15;;;;;;;2.17;1.98;;;10.00;97.80;;;;;;5091857;28;20103;-55
2023/05/11 06:10:40;;;;;;;1.60;1.50;;;10.10;97.60;;;;;;5090205;28;20032;-55
2023/05/11 06:13:08;;;;;;;4.20;1.77;;;10.10;96.90;;;;;;5090922;28;20081;-57
2023/05/11 06:15:34;;;;;;;2.00;1.88;;;10.10;96.80;;;;;;5091464;28;20463;-58
2023/05/11 06:17:59;;;;;;;4.07;1.60;;;10.20;96.10;;;;;;5091758;28;20031;-58
2023/05/11 06:20:25;;;;;;;3.92;1.90;;;10.20;96.20;;;;;;5091596;28;20376;-58
2023/05/11 06:22:51;;;;;;;8.68;1.73;;;10.20;96.30;;;;;;5091405;28;20370;-58
2023/05/11 06:25:16;;;;;;;1.70;1.60;;;10.10;96.20;;;;;;5091518;28;20024;-58
2023/05/11 06:27:42;;;;;;;2.50;2.20;;;10.20;97.10;;;;;;5091532;28;20028;-57
2023/05/11 06:30:08;;;;;;;2.00;1.80;;;10.20;97.30;;;;;;5091540;28;20023;-58
2023/05/11 06:32:34;;;;;;;4.38;1.60;;;10.20;96.10;;;;;;5091184;28;20409;-58
2023/05/11 06:35:00;;;;;;;3.55;2.50;;;10.30;96.80;;;;;;5091397;28;20032;-59
2023/05/11 06:37:28;;;;;;;1.42;1.33;;;10.30;97.30;;;;;;5091484;28;20012;-57
2023/05/11 06:39:54;;;;;;;1.80;1.70;;;10.30;97.10;;;;;;5091206;28;20068;-58
2023/05/11 06:42:22;;;;;;;1.83;1.55;;;10.30;96.80;;;;;;5091538;28;20180;-56
2023/05/11 06:44:48;;;;;;;3.42;1.70;;;10.30;95.90;;;;;;5091324;28;20052;-58
2023/05/11 06:47:14;;;;;;;3.22;1.50;;;10.20;96.60;;;;;;5091386;28;20401;-57
2023/05/11 06:49:43;;;;;;;1.65;1.50;;;10.20;96.20;;;;;;5091296;28;20067;-57
2023/05/11 06:52:09;;;;;;;2.08;1.98;;;10.20;96.10;;;;;;5091459;28;20433;-58
2023/05/11 06:54:34;;;;;;;4.32;1.50;;;10.20;95.00;;;;;;5091089;28;20024;-57
2023/05/11 06:57:02;;;;;;;3.05;1.80;;;10.10;97.50;;;;;;5091321;28;20069;-57
2023/05/11 06:59:28;;;;;;;1.73;1.38;;;10.10;96.90;;;;;;5091171;28;20024;-57
2023/05/11 07:01:54;;;;;;;2.00;1.90;;;10.20;96.60;;;;;;5091175;28;20066;-57
2023/05/11 07:04:20;;;;;;;1.65;1.55;;;10.00;97.80;;;;;;5091257;28;20020;-57
2023/05/11 07:06:46;;;;;;;6.85;1.80;;;10.00;97.60;;;;;;5091549;28;20628;-57
2023/05/11 07:09:11;;;;;;;3.33;1.42;;;10.00;97.60;;;;;;5090883;28;20020;-58
2023/05/11 07:11:37;;;;;;;1.67;1.58;;;9.90;97.70;;;;;;5091190;28;20021;-57
2023/05/11 07:14:03;;;;;;;1.20;1.20;;;10.00;98.80;;;;;;5091017;28;20028;-58
2023/05/11 07:16:28;;;;;;;2.88;1.63;;;10.00;97.70;;;;;;5090920;28;20025;-58
2023/05/11 07:18:54;;;;;;;1.25;1.23;;;10.00;96.80;;;;;;5091300;28;20044;-57
2023/05/11 07:21:22;;;;;;;9.13;1.27;;;9.90;97.50;;;;;;5090876;28;20487;-57
2023/05/11 07:23:48;;;;;;;1.10;1.08;;;10.00;98.50;;;;;;5090836;28;20024;-57
2023/05/11 07:26:13;;;;;;;1.27;1.23;;;10.00;96.60;;;;;;5094644;28;20360;-56
2023/05/11 07:28:39;;;;;;;4.28;1.50;;;10.00;96.40;;;;;;5094470;28;20107;-56
2023/05/11 07:31:05;;;;;;;1.40;1.30;;;10.00;96.10;;;;;;5094834;28;20149;-57
2023/05/11 07:33:33;;;;;;;3.88;1.45;;;10.00;96.90;;;;;;5094472;28;20024;-54
2023/05/11 07:35:59;;;;;;;1.77;1.40;;;10.10;97.50;;;;;;5094706;28;20028;-57
2023/05/11 07:38:24;;;;;;;2.50;1.45;;;10.10;97.70;;;;;;5094211;28;20032;-55
2023/05/11 07:40:50;;;;;;;1.92;1.38;;;10.10;97.80;;;;;;5094214;28;20387;-54
2023/05/11 07:43:15;;;;;;;2.42;1.38;;;10.10;97.90;;;;;;5094396;28;20058;-54
2023/05/11 07:45:41;;;;;;;5.13;1.60;;;10.10;97.90;;;;;;5094323;28;20024;-55
2023/05/11 07:48:07;;;;;;;1.10;1.10;;;10.10;97.90;;;;;;5094352;28;20024;-56
2023/05/11 07:50:32;;;;;;;1.17;1.17;;;10.00;97.90;;;;;;5094140;28;20052;-56
2023/05/11 07:52:58;;;;;;;3.58;3.28;;;10.00;97.60;;;;;;5094120;28;20016;-56
2023/05/11 07:55:23;;;;;;;6.50;3.35;;;10.00;99.40;;;;;;5094313;28;20066;-57
2023/05/11 07:57:51;;;;;;;3.17;2.38;;;10.10;98.20;;;;;;5075699;28;20036;-58
2023/05/11 08:00:18;;;;;;;3.00;2.15;;;10.20;96.70;;;;;;5093916;28;20020;-58
2023/05/11 08:02:43;;;;;;;2.75;1.88;;;10.20;96.80;;;;;;5094110;28;20032;-58
2023/05/11 08:05:09;;;;;;;8.68;5.40;;;10.30;97.60;;;;;;5094441;28;20023;-55
2023/05/11 08:07:35;;;;;;;8.15;4.97;;;10.20;97.60;;;;;;5075464;28;20020;-53
2023/05/11 08:10:00;;;;;;;1.75;1.65;;;10.30;96.70;;;;;;5093852;28;20020;-53
2023/05/11 08:12:26;;;;;;;2.22;2.03;;;10.30;96.60;;;;;;5092892;28;20061;-59
2023/05/11 08:14:52;;;;;;;2.83;2.05;;;10.40;94.50;;;;;;5093051;28;20464;-60
2023/05/11 08:17:17;;;;;;;1.40;1.30;;;10.30;95.30;;;;;;5075693;28;20399;-58
2023/05/11 08:19:46;;;;;;;1.67;1.25;;;10.30;96.10;;;;;;5093879;28;20032;-70
2023/05/11 08:22:12;;;;;;;1.20;1.10;;;10.40;95.20;;;;;;5093308;28;20066;-58
2023/05/11 08:24:37;;;;;;;2.30;1.60;;;10.40;95.90;;;;;;5093281;28;20404;-58
2023/05/11 08:27:03;;;;;;;1.55;1.45;;;10.40;95.70;;;;;;5093446;28;20032;-58
2023/05/11 08:29:30;;;;;;;1.48;1.38;;;10.40;96.10;;;;;;5093291;28;20059;-58
2023/05/11 08:31:57;;;;;;;3.90;1.33;;;10.40;95.50;;;;;;5093513;28;20035;-58
2023/05/11 08:34:23;;;;;;;1.40;1.30;;;10.40;95.40;;;;;;5093543;28;20028;-58
2023/05/11 08:36:49;;;;;;;1.75;1.65;;;10.40;94.40;;;;;;5092721;28;20039;-58
2023/05/11 08:39:14;;;;;;;1.30;1.10;;;10.40;95.20;;;;;;5092985;28;20036;-58
2023/05/11 08:41:40;;;;;;;1.25;1.02;;;10.50;94.70;;;;;;5093122;28;20024;-58
2023/05/11 08:44:06;;;;;;;1.45;1.30;;;10.50;96.30;;;;;;5093298;28;20467;-58
2023/05/11 08:46:35;;;;;;;1.70;1.27;;;10.50;96.00;;;;;;5092849;28;20020;-58
2023/05/11 08:49:00;;;;;;;1.02;1.02;;;10.50;95.40;;;;;;5093049;28;20016;-58
2023/05/11 08:51:27;;;;;;;1.30;1.20;;;10.60;94.50;;;;;;5092942;28;20114;-58
2023/05/11 08:53:57;;;;;;;1.13;1.13;;;10.60;94.90;;;;;;5093014;28;20406;-58
2023/05/11 08:56:25;;;;;;;2.63;2.25;;;10.60;95.00;;;;;;5093084;28;20024;-58
2023/05/11 08:58:53;;;;;;;1.52;1.42;;;10.70;93.80;;;;;;5092856;28;20068;-58
2023/05/11 09:01:21;;;;;;;1.27;1.13;;;10.70;91.20;;;;;;5092809;28;20111;-58
2023/05/11 09:03:47;;;;;;;1.05;1.05;;;10.80;90.70;;;;;;5092724;28;20024;-58
2023/05/11 09:06:14;;;;;;;1.00;1.00;;;11.00;91.80;;;;;;5092921;28;20004;-58
2023/05/11 09:08:41;;;;;;;3.75;1.40;;;11.00;90.30;;;;;;5092531;28;20028;-58
2023/05/11 09:11:08;;;;;;;0.90;0.90;;;11.00;92.00;;;;;;5074770;28;20051;-58
2023/05/11 09:13:34;;;;;;;0.90;0.90;;;11.00;83.40;;;;;;5092580;28;20542;-58
2023/05/11 09:15:59;;;;;;;0.90;0.90;;;11.30;75.50;;;;;;5092518;28;20052;-58
2023/05/11 09:18:25;;;;;;;0.90;0.90;;;11.40;67.60;;;;;;5092522;28;20054;-61
2023/05/11 09:20:51;;;;;;;0.73;0.73;;;11.70;65.30;;;;;;5092287;28;20054;-58
2023/05/11 09:23:17;;;;;;;1.65;1.00;;;11.50;63.60;;;;;;5074320;28;20466;-58
2023/05/11 09:25:43;;;;;;;0.80;0.80;;;11.60;67.90;;;;;;5092335;28;20119;-57
2023/05/11 09:28:12;;;;;;;0.80;0.80;;;11.80;52.00;;;;;;5092754;28;20118;-58
2023/05/11 09:30:38;;;;;;;0.70;0.70;;;11.70;50.40;;;;;;5091304;28;20016;-57
2023/05/11 09:33:03;;;;;;;0.90;0.90;;;11.60;41.50;;;;;;5092696;28;20386;-52
2023/05/11 09:35:32;;;;;;;0.95;0.80;;;11.70;47.00;;;;;;5092546;28;20031;-54
2023/05/11 09:38:10;;;;;;;0.70;0.70;;;11.60;39.80;;;;;;5092037;28;20077;-50
2023/05/11 09:40:38;;;;;;;0.65;0.65;;;11.60;57.10;;;;;;5091413;28;20157;-54
2023/05/11 09:43:18;;;;;;;1.02;0.90;;;11.80;67.10;;;;;;5091363;28;20482;-54
2023/05/11 09:45:46;;;;;;;1.95;1.00;;;11.80;54.00;;;;;;5092240;28;20028;-52
2023/05/11 09:48:20;;;;;;;2.17;1.15;;;11.60;56.60;;;;;;5091396;28;20027;-53
2023/05/11 09:50:51;;;;;;;14.00;12.90;;;11.60;51.30;;;;;;5091940;28;20024;-49
2023/05/11 09:53:17;;;;;;;2.33;1.90;;;11.60;56.90;;;;;;5092038;28;20429;-49
2023/05/11 09:55:53;;;;;;;3.53;1.30;;;11.80;67.80;;;;;;5091900;28;20032;-54
2023/05/11 09:58:19;;;;;;;0.70;0.70;;;11.70;57.70;;;;;;5091987;28;20035;-54
2023/05/11 10:00:52;;;;;;;0.77;0.77;;;11.80;57.60;;;;;;5091991;28;20040;-54
2023/05/11 10:03:18;;;;;;;0.90;0.90;;;11.80;51.10;;;;;;5091798;28;20020;-50
2023/05/11 10:05:58;;;;;;;0.80;0.80;;;11.80;68.60;;;;;;5091768;28;20052;-53
2023/05/11 10:08:33;;;;;;;1.20;1.10;;;12.00;56.10;;;;;;5091791;28;20024;-52
2023/05/11 10:11:01;;;;;;;1.20;1.10;;;11.90;40.60;;;;;;5091774;28;20039;-54
2023/05/11 10:13:39;;;;;;;0.68;0.68;;;11.80;54.30;;;;;;5091677;28;20032;-54
2023/05/11 10:16:07;;;;;;;1.02;0.95;;;11.90;46.40;;;;;;5091669;28;20032;-57
2023/05/11 10:18:33;;;;;;;1.00;0.90;;;12.00;40.10;;;;;;5091484;28;20034;-51
2023/05/11 10:20:59;;;;;;;1.20;0.80;;;11.90;61.20;;;;;;5091679;28;20024;-57
2023/05/11 10:23:25;;;;;;;1.27;0.90;;;12.10;63.60;;;;;;5091690;28;20020;-58
2023/05/11 10:25:52;;;;;;;1.27;0.90;;;12.10;75.60;;;;;;5091646;28;20433;-56
2023/05/11 10:28:19;;;;;;;1.48;1.20;;;12.00;65.00;;;;;;5091661;28;20056;-55
2023/05/11 10:30:46;;;;;;;1.10;1.02;;;12.10;46.40;;;;;;5091840;28;20097;-54
2023/05/11 10:33:12;;;;;;;1.88;1.67;;;12.20;65.10;;;;;;5091543;28;20058;-56
2023/05/11 10:35:38;;;;;;;0.70;0.70;;;12.40;60.00;;;;;;5091460;28;20034;-54
2023/05/11 10:38:05;;;;;;;0.75;0.75;;;12.70;31.70;;;;;;5092069;28;20028;-53
2023/05/11 10:40:37;;;;;;;0.70;0.70;;;12.90;18.70;;;;;;5091150;28;20090;-55
2023/05/11 10:43:28;;;;;;;0.85;0.85;;;13.10;6.00;;;;;;5091415;28;20016;-57
2023/05/11 10:46:07;;;;;;;0.80;0.80;;;13.40;1.00;;;;;;5091444;28;20077;-57
2023/05/11 10:48:39;;;;;;;1.05;1.00;;;13.50;1.00;;;;;;5091481;28;20416;-57
2023/05/11 10:51:23;;;;;;;0.85;0.85;;;13.50;1.00;;;;;;5091421;28;20028;-53
2023/05/11 10:54:18;;;;;;;0.90;0.90;;;13.40;5.50;;;;;;5091243;28;20371;-54
2023/05/11 10:57:09;;;;;;;0.80;0.80;;;13.30;1.00;;;;;;5096007;28;20383;-54
2023/05/11 10:59:50;;;;;;;0.85;0.85;;;13.10;11.70;;;;;;5094102;28;20050;-52
2023/05/11 11:02:17;;;;;;;1.20;1.00;;;13.30;20.60;;;;;;5094869;28;20032;-50
2023/05/11 11:04:47;;;;;;;0.88;0.88;;;13.20;13.40;;;;;;5095041;28;20483;-50
2023/05/11 11:07:17;;;;;;;7.72;5.55;;;13.20;23.10;;;;;;5095528;28;20427;-48
2023/05/11 11:10:08;;;;;;;1.75;1.65;;;13.20;33.60;;;;;;5095010;28;20095;-54
2023/05/11 11:12:34;;;;;;;1.45;1.20;;;13.00;29.80;;;;;;5090873;28;20051;-54
2023/05/11 11:15:02;;;;;;;1.17;1.10;;;13.00;37.00;;;;;;5094655;28;20024;-58
2023/05/11 11:17:30;;;;;;;1.92;1.80;;;12.90;34.60;;;;;;5094712;28;20078;-57
2023/05/11 11:20:08;;;;;;;2.03;1.45;;;12.80;44.30;;;;;;5094537;28;20082;-58
2023/05/11 11:22:34;;;;;;;2.08;1.10;;;12.70;47.90;;;;;;5094537;28;20020;-58
2023/05/11 11:25:01;;;;;;;1.50;1.40;;;12.50;47.00;;;;;;5094687;28;20069;-57
2023/05/11 11:27:47;;;;;;;1.58;1.48;;;12.40;52.50;;;;;;5094614;28;20028;-57
2023/05/11 11:30:21;;;;;;;1.63;1.33;;;12.40;72.20;;;;;;5094581;28;20054;-58
2023/05/11 11:32:48;;;;;;;2.03;1.48;;;12.50;67.60;;;;;;5094383;28;20055;-55
2023/05/11 11:35:38;;;;;;;3.30;3.00;;;12.70;59.10;;;;;;5094096;28;20376;-58
2023/05/11 11:38:05;;;;;;;3.60;3.17;;;12.70;47.60;;;;;;5080326;28;20032;-56
2023/05/11 11:40:35;;;;;;;2.63;2.40;;;12.80;62.20;;;;;;5063057;28;20047;-56
2023/05/11 11:43:17;;;;;;;2.83;2.63;;;12.80;56.50;;;;;;5062706;28;20029;-59
2023/05/11 11:45:51;;;;;;;6.18;2.80;;;12.60;41.80;;;;;;5062958;28;20380;-58
2023/05/11 11:48:36;;;;;;;6.10;3.13;;;12.50;64.60;;;;;;5062932;28;20051;-59
2023/05/11 11:51:08;;;;;;;3.08;2.58;;;12.60;73.00;;;;;;5062472;28;20028;-58
2023/05/11 11:53:36;;;;;;;3.15;2.80;;;12.70;48.10;;;;;;5082133;28;20051;-57
2023/05/11 11:56:28;;;;;;;2.67;2.47;;;12.80;71.30;;;;;;5082143;28;20020;-58
2023/05/11 11:58:58;;;;;;;2.53;2.33;;;12.80;65.00;;;;;;5067429;28;20395;-58
2023/05/11 12:01:27;;;;;;;5.55;2.00;;;13.00;68.10;;;;;;5080487;28;20028;-58
2023/05/11 12:04:30;;;;;;;4.50;1.98;;;13.00;46.30;;;;;;5081181;28;20024;-58
2023/05/11 12:06:57;;;;;;;2.17;2.00;;;12.90;41.10;;;;;;5081645;28;20081;-57
2023/05/11 12:09:23;;;;;;;3.67;2.20;;;13.10;39.90;;;;;;5082468;28;20388;-57
2023/05/11 12:11:51;;;;;;;5.05;2.00;;;13.10;24.90;;;;;;5082506;28;20036;-59
2023/05/11 12:14:18;;;;;;;4.60;1.55;;;13.00;46.10;;;;;;5064733;28;20494;-57
2023/05/11 12:17:03;;;;;;;1.95;1.83;;;13.00;40.00;;;;;;5082639;28;20062;-58
2023/05/11 12:19:29;;;;;;;2.10;1.77;;;13.00;48.40;;;;;;5068167;28;20391;-58
2023/05/11 12:21:55;;;;;;;1.75;1.58;;;12.90;45.90;;;;;;5062030;28;20108;-58
2023/05/11 12:24:21;;;;;;;2.08;1.85;;;12.70;59.70;;;;;;5062384;28;20024;-55
2023/05/11 12:26:47;;;;;;;2.40;2.22;;;12.60;70.50;;;;;;5060111;28;20419;-58
2023/05/11 12:29:14;;;;;;;2.22;1.83;;;12.60;54.80;;;;;;5062708;28;20032;-57
2023/05/11 12:31:44;;;;;;;2.75;1.92;;;12.70;56.90;;;;;;5061678;28;20444;-58
2023/05/11 12:34:17;;;;;;;2.03;1.92;;;12.60;47.80;;;;;;5062244;28;20112;-57
2023/05/11 12:36:44;;;;;;;4.47;3.00;;;12.50;45.80;;;;;;5061434;28;20036;-58
2023/05/11 12:39:17;;;;;;;2.35;2.22;;;12.50;66.80;;;;;;5061688;28;20062;-58
2023/05/11 12:41:44;;;;;;;2.60;2.40;;;12.60;69.30;;;;;;5043054;28;20480;-58
2023/05/11 12:44:10;;;;;;;2.88;2.65;;;12.70;64.50;;;;;;5060993;28;20044;-58
2023/05/11 12:46:36;;;;;;;3.97;2.50;;;12.80;66.60;;;;;;5060410;28;20636;-59
2023/05/11 12:49:02;;;;;;;2.95;2.65;;;13.00;57.30;;;;;;5062039;28;20644;-57
2023/05/11 12:52:07;;;;;;;2.42;2.22;;;13.10;56.00;;;;;;5061996;28;20507;-58
2023/05/11 12:54:39;;;;;;;4.53;2.97;;;13.10;52.80;;;;;;5030403;28;20074;-59
2023/05/11 12:57:08;;;;;;;3.30;3.00;;;13.10;71.90;;;;;;5061691;28;20533;-58
2023/05/11 12:59:39;;;;;;;3.28;3.00;;;13.00;63.30;;;;;;5061601;28;20044;-59